createdAt,value
2018-10-21T00:01:31.887Z,636.47
2018-10-21T00:04:01.237Z,648.08
2018-10-21T00:06:30.702Z,635.70
2018-10-21T00:09:00.153Z,635.50
2018-10-21T00:11:33.340Z,624.15
2018-10-21T00:14:02.729Z,608.72
2018-10-21T00:16:32.175Z,629.80
2018-10-21T00:19:01.591Z,622.37
2018-10-21T00:21:31.081Z,598.27
2018-10-21T00:24:00.423Z,601.53
2018-10-21T00:26:29.788Z,607.42
2018-10-21T00:29:00.142Z,615.10
2018-10-21T00:31:29.488Z,617.27
2018-10-21T00:34:00.812Z,635.48
2018-10-21T00:36:30.250Z,626.73
2018-10-21T00:39:00.626Z,627.42
2018-10-21T00:41:29.989Z,621.12
2018-10-21T00:43:59.363Z,625.62
2018-10-21T00:46:28.723Z,614.13
2018-10-21T00:48:58.124Z,620.42
2018-10-21T00:51:27.533Z,612.62
2018-10-21T00:53:56.922Z,620.95
2018-10-21T00:56:26.294Z,610.15
2018-10-21T00:58:55.653Z,609.55
2018-10-21T01:01:26.001Z,599.67
2018-10-21T01:03:56.352Z,612.10
2018-10-21T01:06:26.729Z,608.55
2018-10-21T01:08:56.132Z,595.50
2018-10-21T01:11:25.644Z,603.07
2018-10-21T01:13:54.972Z,595.67
2018-10-21T01:16:24.665Z,594.17
2018-10-21T01:18:54.027Z,591.70
2018-10-21T01:21:23.441Z,603.35
2018-10-21T01:23:53.785Z,588.70
2018-10-21T01:26:23.317Z,604.53
2018-10-21T01:28:52.662Z,592.92
2018-10-21T01:31:22.023Z,595.47
2018-10-21T01:33:51.424Z,590.20
2018-10-21T01:36:21.230Z,600.98
2018-10-21T01:38:50.166Z,592.50
2018-10-21T01:41:19.544Z,596.42
2018-10-21T01:43:48.939Z,589.15
2018-10-21T01:46:18.291Z,588.20
2018-10-21T01:48:47.675Z,593.10
2018-10-21T01:51:17.151Z,593.23
2018-10-21T01:53:46.386Z,587.62
2018-10-21T01:56:15.755Z,587.85
2018-10-21T01:58:45.064Z,563.17
2018-10-21T02:01:14.468Z,547.58
2018-10-21T02:03:43.819Z,537.58
2018-10-21T02:06:13.167Z,541.98
2018-10-21T02:08:42.512Z,532.00
2018-10-21T02:11:11.850Z,539.27
2018-10-21T02:13:41.204Z,538.22
2018-10-21T02:16:11.563Z,543.07
2018-10-21T02:18:40.911Z,546.50
2018-10-21T02:21:10.339Z,544.73
2018-10-21T02:23:39.581Z,547.60
2018-10-21T02:26:08.942Z,534.33
2018-10-21T02:28:42.332Z,534.08
2018-10-21T02:31:11.670Z,551.35
2018-10-21T02:33:41.193Z,536.77
2018-10-21T02:36:10.480Z,544.15
2018-10-21T02:38:39.837Z,560.08
2018-10-21T02:41:22.801Z,551.15
2018-10-21T02:43:52.155Z,546.03
2018-10-21T02:46:22.486Z,536.08
2018-10-21T02:48:53.090Z,537.72
2018-10-21T02:51:22.556Z,536.60
2018-10-21T02:53:52.010Z,533.20
2018-10-21T02:56:21.412Z,548.80
2018-10-21T02:58:50.827Z,553.45
2018-10-21T03:01:20.183Z,566.10
2018-10-21T03:03:49.540Z,573.62
2018-10-21T03:06:19.002Z,547.33
2018-10-21T03:08:49.373Z,549.38
2018-10-21T03:11:20.748Z,540.52
2018-10-21T03:13:50.102Z,552.70
2018-10-21T03:16:19.494Z,566.40
2018-10-21T03:18:48.840Z,559.92
2018-10-21T03:21:18.255Z,551.60
2018-10-21T03:23:51.466Z,582.30
2018-10-21T03:26:21.880Z,583.50
2018-10-21T03:28:51.237Z,574.23
2018-10-21T03:31:20.640Z,588.42
2018-10-21T03:33:50.290Z,580.50
2018-10-21T03:36:19.516Z,550.25
2018-10-21T03:38:48.882Z,539.95
2018-10-21T03:41:18.249Z,525.02
2018-10-21T03:43:47.643Z,538.98
2018-10-21T03:46:18.033Z,505.63
2018-10-21T03:48:47.348Z,511.65
2018-10-21T03:51:16.728Z,518.80
2018-10-21T03:53:46.136Z,514.37
2018-10-21T03:56:15.538Z,493.93
2018-10-21T03:58:44.865Z,507.60
2018-10-21T04:01:14.237Z,471.98
2018-10-21T04:03:43.615Z,457.45
2018-10-21T04:06:12.946Z,434.00
2018-10-21T04:08:42.325Z,391.00
2018-10-21T04:11:11.701Z,336.80
2018-10-21T04:13:41.030Z,355.18
2018-10-21T04:16:10.415Z,322.75
2018-10-21T04:18:39.715Z,338.43
2018-10-21T04:21:09.046Z,328.90
2018-10-21T04:23:38.487Z,312.65
2018-10-21T04:26:07.823Z,348.68
2018-10-21T04:28:37.214Z,351.30
2018-10-21T04:31:06.566Z,365.60
2018-10-21T04:33:39.899Z,362.55
2018-10-21T04:36:10.963Z,368.35
2018-10-21T04:38:51.439Z,391.47
2018-10-21T04:41:20.961Z,393.35
2018-10-21T04:43:50.306Z,371.32
2018-10-21T04:46:19.702Z,367.18
2018-10-21T04:48:49.096Z,372.77
2018-10-21T04:51:18.490Z,359.77
2018-10-21T04:53:49.000Z,325.83
2018-10-21T04:56:18.346Z,321.20
2018-10-21T04:58:48.755Z,330.27
2018-10-21T05:01:18.327Z,326.35
2018-10-21T05:03:48.681Z,310.32
2018-10-21T05:06:18.080Z,342.37
2018-10-21T05:08:48.451Z,353.45
2018-10-21T05:11:17.832Z,341.73
2018-10-21T05:13:47.182Z,347.50
2018-10-21T05:16:16.688Z,356.02
2018-10-21T05:18:46.033Z,375.60
2018-10-21T05:21:15.413Z,382.15
2018-10-21T05:23:44.830Z,370.90
2018-10-21T05:26:14.258Z,394.18
2018-10-21T05:28:43.620Z,396.60
2018-10-21T05:31:13.078Z,390.63
2018-10-21T05:33:42.446Z,372.97
2018-10-21T05:36:11.823Z,375.00
2018-10-21T05:38:41.271Z,369.45
2018-10-21T05:41:10.619Z,342.48
2018-10-21T05:43:39.992Z,324.18
2018-10-21T05:46:09.869Z,299.73
2018-10-21T05:48:39.148Z,283.70
2018-10-21T05:51:08.486Z,290.65
2018-10-21T05:53:37.812Z,257.40
2018-10-21T05:56:07.151Z,260.60
2018-10-21T05:58:36.513Z,293.58
2018-10-21T06:01:05.875Z,236.92
2018-10-21T06:03:35.224Z,246.97
2018-10-21T06:06:04.712Z,275.27
2018-10-21T06:08:34.076Z,244.20
2018-10-21T06:11:03.495Z,242.10
2018-10-21T06:13:32.825Z,248.55
2018-10-21T06:16:02.225Z,230.37
2018-10-21T06:18:31.563Z,222.42
2018-10-21T06:21:03.210Z,201.02
2018-10-21T06:23:32.579Z,149.30
2018-10-21T06:26:01.918Z,158.80
2018-10-21T06:28:31.272Z,158.45
2018-10-21T06:31:00.951Z,222.48
2018-10-21T06:33:30.330Z,167.13
2018-10-21T06:35:59.903Z,146.37
2018-10-21T06:38:29.265Z,139.10
2018-10-21T06:41:02.505Z,139.20
2018-10-21T06:43:32.881Z,136.27
2018-10-21T06:46:02.235Z,134.73
2018-10-21T06:48:31.657Z,130.40
2018-10-21T06:51:02.363Z,136.88
2018-10-21T06:53:31.753Z,138.73
2018-10-21T06:56:01.083Z,164.07
2018-10-21T06:58:30.467Z,160.82
2018-10-21T07:00:59.815Z,221.37
2018-10-21T07:03:29.157Z,208.05
2018-10-21T07:06:16.858Z,214.02
2018-10-21T07:08:46.776Z,267.40
2018-10-21T07:11:16.346Z,261.43
2018-10-21T07:13:45.710Z,255.50
2018-10-21T07:16:15.366Z,255.77
2018-10-21T07:18:45.515Z,249.80
2018-10-21T07:21:15.020Z,278.15
2018-10-21T07:23:44.661Z,297.00
2018-10-21T07:26:14.040Z,320.42
2018-10-21T07:28:43.408Z,316.20
2018-10-21T07:31:12.825Z,352.20
2018-10-21T07:33:42.201Z,355.30
2018-10-21T07:36:11.623Z,354.85
2018-10-21T07:38:40.955Z,343.50
2018-10-21T07:41:10.332Z,373.73
2018-10-21T07:43:39.708Z,425.05
2018-10-21T07:46:09.075Z,385.27
2018-10-21T07:48:38.364Z,399.57
2018-10-21T07:51:07.729Z,410.00
2018-10-21T07:53:37.112Z,411.50
2018-10-21T07:56:06.497Z,433.02
2018-10-21T07:58:35.879Z,403.48
2018-10-21T08:01:05.539Z,404.92
2018-10-21T08:03:34.857Z,414.87
2018-10-21T08:06:27.604Z,415.08
2018-10-21T08:08:57.121Z,421.70
2018-10-21T08:11:26.552Z,418.52
2018-10-21T08:13:55.911Z,455.43
2018-10-21T08:16:25.273Z,461.05
2018-10-21T08:18:54.643Z,456.02
2018-10-21T08:21:25.794Z,493.07
2018-10-21T08:23:55.172Z,459.85
2018-10-21T08:26:24.550Z,507.62
2018-10-21T08:28:53.898Z,460.10
2018-10-21T08:31:23.256Z,477.55
2018-10-21T08:33:52.806Z,492.10
2018-10-21T08:36:22.090Z,485.43
2018-10-21T08:38:51.483Z,474.35
2018-10-21T08:41:21.032Z,480.70
2018-10-21T08:43:50.394Z,463.27
2018-10-21T08:46:19.819Z,457.98
2018-10-21T08:48:49.204Z,484.45
2018-10-21T08:51:18.576Z,484.20
2018-10-21T08:53:47.929Z,502.58
2018-10-21T08:56:17.301Z,514.85
2018-10-21T08:58:46.640Z,504.00
2018-10-21T09:01:16.127Z,528.02
2018-10-21T09:03:45.416Z,523.53
2018-10-21T09:06:14.811Z,547.98
2018-10-21T09:08:44.138Z,514.70
2018-10-21T09:11:13.517Z,523.90
2018-10-21T09:13:42.930Z,547.20
2018-10-21T09:16:12.391Z,527.78
2018-10-21T09:18:41.779Z,525.62
2018-10-21T09:21:11.138Z,576.70
2018-10-21T09:23:40.516Z,592.80
2018-10-21T09:26:10.893Z,600.13
2018-10-21T09:28:40.267Z,555.35
2018-10-21T09:31:10.648Z,563.08
2018-10-21T09:33:39.933Z,540.35
2018-10-21T09:36:09.316Z,535.78
2018-10-21T09:38:38.683Z,564.80
2018-10-21T09:41:08.056Z,552.42
2018-10-21T09:43:37.394Z,539.33
2018-10-21T09:46:06.817Z,547.08
2018-10-21T09:48:36.413Z,583.45
2018-10-21T09:51:05.801Z,518.37
2018-10-21T09:53:35.190Z,526.48
2018-10-21T09:56:04.577Z,546.72
2018-10-21T09:58:33.990Z,540.83
2018-10-21T10:01:08.595Z,509.48
2018-10-21T10:03:37.897Z,538.45
2018-10-21T10:06:07.286Z,491.90
2018-10-21T10:08:36.639Z,562.30
2018-10-21T10:11:06.076Z,652.25
2018-10-21T10:13:35.440Z,611.83
2018-10-21T10:16:05.050Z,590.95
2018-10-21T10:18:35.827Z,571.55
2018-10-21T10:21:05.409Z,538.35
2018-10-21T10:23:34.921Z,580.90
2018-10-21T10:26:04.293Z,517.65
2018-10-21T10:28:33.655Z,523.85
2018-10-21T10:31:03.042Z,506.85
2018-10-21T10:33:32.955Z,494.62
2018-10-21T10:36:02.683Z,463.25
2018-10-21T10:38:31.982Z,525.10
2018-10-21T10:43:39.961Z,536.90
2018-10-21T10:46:09.375Z,510.95
2018-10-21T10:48:39.725Z,377.90
2018-10-21T10:51:09.651Z,397.55
2018-10-21T10:53:39.071Z,411.30
2018-10-21T10:56:08.444Z,426.45
2018-10-21T10:58:37.850Z,457.00
2018-10-21T11:01:11.304Z,448.13
2018-10-21T11:03:40.589Z,456.35
2018-10-21T11:06:09.979Z,415.20
2018-10-21T11:08:39.279Z,437.62
2018-10-21T11:11:08.659Z,472.23
2018-10-21T11:13:37.996Z,472.75
2018-10-21T11:16:07.676Z,431.78
2018-10-21T11:18:37.033Z,461.58
2018-10-21T11:21:06.499Z,492.90
2018-10-21T11:23:35.847Z,466.68
2018-10-21T11:26:05.271Z,481.50
2018-10-21T11:28:34.651Z,390.00
2018-10-21T11:31:04.121Z,390.50
2018-10-21T11:33:33.392Z,396.90
2018-10-21T11:36:02.732Z,383.57
2018-10-21T11:38:32.168Z,400.95
2018-10-21T11:41:01.521Z,390.45
2018-10-21T11:43:30.878Z,381.90
2018-10-21T11:46:00.312Z,369.80
2018-10-21T11:48:29.627Z,371.62
2018-10-21T11:50:59.005Z,326.48
2018-10-21T11:53:28.460Z,374.23
2018-10-21T11:55:57.780Z,397.47
2018-10-21T11:58:27.253Z,399.20
2018-10-21T12:00:56.719Z,389.95
2018-10-21T12:03:26.695Z,393.40
2018-10-21T12:05:56.123Z,395.37
2018-10-21T12:08:26.062Z,388.35
2018-10-21T12:10:55.478Z,406.17
2018-10-21T12:13:24.846Z,390.97
2018-10-21T12:15:54.223Z,409.40
2018-10-21T12:18:23.608Z,390.40
2018-10-21T12:20:52.946Z,403.20
2018-10-21T12:23:22.440Z,424.12
2018-10-21T12:25:51.775Z,412.37
2018-10-21T12:28:21.135Z,412.62
2018-10-21T12:30:50.542Z,450.35
2018-10-21T12:33:19.932Z,459.40
2018-10-21T12:35:49.344Z,464.40
2018-10-21T12:38:18.734Z,450.22
2018-10-21T12:40:50.155Z,428.55
2018-10-21T12:43:19.702Z,450.83
2018-10-21T12:45:49.053Z,442.07
2018-10-21T12:48:18.463Z,439.40
2018-10-21T12:50:47.851Z,439.78
2018-10-21T12:53:17.294Z,429.02
2018-10-21T12:55:48.854Z,422.73
2018-10-21T12:58:19.040Z,472.35
2018-10-21T13:00:48.600Z,480.15
2018-10-21T13:03:18.125Z,465.88
2018-10-21T13:05:47.510Z,477.67
2018-10-21T13:08:16.852Z,439.13
2018-10-21T13:10:46.258Z,462.65
2018-10-21T13:13:15.648Z,480.70
2018-10-21T13:15:44.988Z,452.90
2018-10-21T13:18:14.407Z,435.60
2018-10-21T13:20:43.759Z,463.97
2018-10-21T13:23:13.097Z,471.33
2018-10-21T13:25:43.503Z,488.63
2018-10-21T13:28:12.957Z,554.60
2018-10-21T13:30:42.309Z,558.77
2018-10-21T13:33:11.713Z,540.08
2018-10-21T13:35:41.096Z,538.70
2018-10-21T13:38:10.698Z,502.30
2018-10-21T13:40:40.104Z,556.52
2018-10-21T13:43:09.514Z,584.27
2018-10-21T13:45:38.902Z,555.00
2018-10-21T13:48:08.281Z,562.50
2018-10-21T13:50:37.763Z,558.92
2018-10-21T13:53:07.180Z,626.17
2018-10-21T13:55:36.491Z,612.23
2018-10-21T13:58:06.314Z,618.50
2018-10-21T14:00:35.950Z,599.88
2018-10-21T14:03:05.428Z,583.00
2018-10-21T14:05:37.851Z,594.85
2018-10-21T14:08:07.229Z,595.23
2018-10-21T14:10:36.675Z,598.08
2018-10-21T14:13:06.407Z,582.17
2018-10-21T14:15:39.594Z,563.25
2018-10-21T14:18:08.940Z,550.92
2018-10-21T14:20:38.321Z,547.37
2018-10-21T14:23:07.730Z,597.73
2018-10-21T14:25:37.051Z,615.23
2018-10-21T14:28:06.445Z,589.37
2018-10-21T14:30:35.833Z,606.10
2018-10-21T14:33:05.658Z,634.27
2018-10-21T14:35:35.134Z,584.77
2018-10-21T14:38:04.636Z,590.63
2018-10-21T14:40:33.890Z,614.25
2018-10-21T14:43:03.232Z,598.30
2018-10-21T14:45:32.610Z,592.08
2018-10-21T14:48:01.989Z,598.17
2018-10-21T14:50:31.357Z,597.80
2018-10-21T14:53:00.736Z,597.75
2018-10-21T14:55:30.060Z,586.60
2018-10-21T14:57:59.440Z,627.20
2018-10-21T15:00:29.031Z,584.17
2018-10-21T15:02:58.347Z,632.35
2018-10-21T15:05:27.608Z,599.42
2018-10-21T15:07:58.038Z,602.75
2018-10-21T15:10:27.354Z,614.80
2018-10-21T15:12:56.744Z,589.00
2018-10-21T15:15:28.114Z,580.63
2018-10-21T15:17:57.497Z,594.70
2018-10-21T15:20:26.799Z,558.20
2018-10-21T15:22:56.177Z,565.50
2018-10-21T15:25:25.507Z,547.27
2018-10-21T15:27:54.936Z,579.25
2018-10-21T15:30:24.266Z,572.57
2018-10-21T15:32:53.596Z,572.83
2018-10-21T15:35:22.954Z,508.00
2018-10-21T15:37:52.298Z,529.83
2018-10-21T15:40:21.755Z,481.37
2018-10-21T15:42:51.134Z,546.17
2018-10-21T15:45:20.488Z,518.35
2018-10-21T15:47:49.855Z,469.25
2018-10-21T15:50:19.279Z,519.08
2018-10-21T15:52:48.594Z,519.37
2018-10-21T15:55:18.932Z,517.17
2018-10-21T15:57:48.313Z,510.37
2018-10-21T16:00:17.709Z,506.70
2018-10-21T16:02:47.088Z,532.92
2018-10-21T16:05:16.459Z,529.87
2018-10-21T16:07:45.841Z,540.08
2018-10-21T16:10:15.263Z,523.00
2018-10-21T16:12:44.573Z,558.73
2018-10-21T16:15:16.071Z,573.75
2018-10-21T16:17:46.158Z,564.27
2018-10-21T16:20:15.693Z,573.55
2018-10-21T16:22:45.688Z,542.63
2018-10-21T16:25:15.857Z,534.58
2018-10-21T16:27:45.239Z,574.62
2018-10-21T16:30:16.460Z,529.27
2018-10-21T16:32:46.094Z,504.90
2018-10-21T16:35:15.445Z,518.17
2018-10-21T16:37:45.812Z,484.40
2018-10-21T16:40:16.381Z,449.35
2018-10-21T16:42:45.740Z,434.80
2018-10-21T16:45:15.681Z,417.50
2018-10-21T16:47:44.951Z,390.35
2018-10-21T16:50:15.922Z,431.33
2018-10-21T16:52:46.153Z,460.13
2018-10-21T16:55:16.286Z,422.55
2018-10-21T16:57:45.668Z,431.75
2018-10-21T17:00:16.393Z,421.72
2018-10-21T17:02:45.714Z,425.40
2018-10-21T17:05:15.269Z,473.65
2018-10-21T17:07:44.405Z,461.85
2018-10-21T17:10:14.170Z,450.42
2018-10-21T17:12:43.123Z,493.05
2018-10-21T17:15:12.788Z,471.15
2018-10-21T17:17:42.762Z,470.27
2018-10-21T17:20:13.996Z,469.33
2018-10-21T17:22:43.776Z,510.85
2018-10-21T17:25:13.590Z,490.43
2018-10-21T17:27:42.991Z,527.85
2018-10-21T17:30:15.579Z,533.45
2018-10-21T17:32:45.353Z,488.68
2018-10-21T17:35:15.796Z,496.65
2018-10-21T17:37:45.147Z,517.70
2018-10-21T17:40:14.561Z,540.25
2018-10-21T17:42:43.858Z,507.88
2018-10-21T17:45:14.400Z,524.92
2018-10-21T17:47:43.847Z,539.78
2018-10-21T17:50:14.282Z,540.38
2018-10-21T17:52:44.212Z,528.40
2018-10-21T17:55:13.856Z,536.27
2018-10-21T17:57:43.164Z,530.17
2018-10-21T18:00:14.310Z,547.15
2018-10-21T18:02:43.652Z,539.97
2018-10-21T18:05:14.082Z,522.58
2018-10-21T18:07:43.681Z,555.60
2018-10-21T18:10:13.355Z,527.30
2018-10-21T18:12:42.623Z,525.90
2018-10-21T18:15:15.034Z,553.67
2018-10-21T18:17:45.408Z,552.60
2018-10-21T18:20:14.768Z,547.17
2018-10-21T18:22:44.138Z,547.30
2018-10-21T18:25:13.541Z,539.35
2018-10-21T18:27:43.025Z,555.98
2018-10-21T18:30:13.095Z,555.80
2018-10-21T18:32:42.893Z,549.87
2018-10-21T18:35:14.551Z,556.78
2018-10-21T18:37:43.979Z,542.98
2018-10-21T18:40:13.386Z,540.25
2018-10-21T18:42:42.858Z,537.77
2018-10-21T18:45:14.438Z,528.98
2018-10-21T18:47:44.247Z,489.87
2018-10-21T18:50:14.778Z,496.15
2018-10-21T18:52:44.235Z,480.40
2018-10-21T18:55:13.993Z,462.70
2018-10-21T18:57:43.288Z,447.15
2018-10-21T19:00:15.090Z,464.20
2018-10-21T19:02:44.540Z,448.50
2018-10-21T19:05:14.506Z,489.23
2018-10-21T19:07:43.912Z,473.47
2018-10-21T19:10:14.655Z,453.98
2018-10-21T19:12:43.947Z,486.58
2018-10-21T19:15:13.891Z,478.35
2018-10-21T19:17:45.270Z,489.50
2018-10-21T19:20:15.856Z,486.00
2018-10-21T19:22:45.304Z,476.85
2018-10-21T19:25:15.883Z,483.15
2018-10-21T19:27:45.837Z,491.18
2018-10-21T19:30:18.253Z,481.37
2018-10-21T19:32:47.623Z,468.80
2018-10-21T19:35:17.321Z,474.37
2018-10-21T19:37:46.723Z,484.03
2018-10-21T19:40:16.494Z,476.48
2018-10-21T19:42:45.852Z,484.60
2018-10-21T19:45:16.290Z,479.18
2018-10-21T19:47:45.674Z,489.93
2018-10-21T19:50:16.193Z,499.10
2018-10-21T19:52:45.619Z,493.13
2018-10-21T19:55:15.027Z,481.63
2018-10-21T19:57:44.407Z,481.73
2018-10-21T20:00:16.744Z,485.40
2018-10-21T20:02:47.136Z,476.52
2018-10-21T20:05:16.485Z,457.08
2018-10-21T20:07:45.867Z,459.48
2018-10-21T20:10:15.930Z,454.07
2018-10-21T20:12:45.329Z,461.92
2018-10-21T20:15:14.905Z,470.38
2018-10-21T20:17:44.299Z,481.37
2018-10-21T20:20:13.895Z,455.65
2018-10-21T20:22:43.284Z,393.88
2018-10-21T20:25:12.667Z,357.18
2018-10-21T20:27:41.980Z,339.15
2018-10-21T20:30:12.648Z,328.05
2018-10-21T20:32:42.452Z,344.27
2018-10-21T20:35:13.051Z,354.15
2018-10-21T20:37:43.387Z,347.48
2018-10-21T20:40:12.875Z,368.82
2018-10-21T20:42:42.174Z,378.77
2018-10-21T20:45:12.681Z,338.75
2018-10-21T20:47:42.084Z,359.92
2018-10-21T20:50:11.403Z,322.27
2018-10-21T20:52:40.735Z,321.95
2018-10-21T20:55:10.123Z,312.08
2018-10-21T20:57:39.495Z,306.98
2018-10-21T21:00:10.013Z,283.47
2018-10-21T21:02:39.425Z,238.50
2018-10-21T21:05:09.474Z,223.47
2018-10-21T21:07:38.867Z,225.57
2018-10-21T21:10:08.683Z,187.53
2018-10-21T21:12:37.967Z,171.60
2018-10-21T21:15:07.927Z,143.22
2018-10-21T21:17:37.269Z,155.15
2018-10-21T21:20:07.614Z,144.28
2018-10-21T21:22:36.946Z,143.97
2018-10-21T21:25:06.563Z,135.73
2018-10-21T21:27:36.008Z,165.03
2018-10-21T21:30:06.743Z,149.65
2018-10-21T21:32:36.012Z,169.75
2018-10-21T21:35:06.600Z,161.45
2018-10-21T21:37:36.048Z,150.05
2018-10-21T21:40:07.186Z,137.65
2018-10-21T21:42:36.457Z,142.40
2018-10-21T21:45:06.120Z,138.37
2018-10-21T21:47:35.676Z,149.05
2018-10-21T21:50:05.798Z,164.95
2018-10-21T21:52:35.185Z,159.57
2018-10-21T21:55:06.936Z,156.55
2018-10-21T21:57:36.455Z,145.45
2018-10-21T22:00:09.123Z,133.67
2018-10-21T22:02:38.403Z,137.35
2018-10-21T22:05:08.856Z,131.87
2018-10-21T22:07:39.472Z,147.40
2018-10-21T22:10:11.317Z,126.95
2018-10-21T22:12:41.103Z,166.75
2018-10-21T22:15:10.439Z,129.75
2018-10-21T22:17:40.579Z,159.95
2018-10-21T22:20:10.528Z,158.93
2018-10-21T22:22:39.916Z,165.90
2018-10-21T22:25:09.680Z,178.12
2018-10-21T22:27:39.051Z,168.60
2018-10-21T22:30:11.507Z,158.63
2018-10-21T22:32:43.836Z,185.20
2018-10-21T22:35:13.240Z,192.43
2018-10-21T22:37:42.580Z,199.82
2018-10-21T22:40:12.014Z,221.32
2018-10-21T22:42:41.393Z,233.87
2018-10-21T22:45:11.126Z,250.40
2018-10-21T22:47:40.507Z,249.45
2018-10-21T22:50:11.045Z,250.60
2018-10-21T22:52:41.121Z,266.95
2018-10-21T22:55:10.484Z,255.35
2018-10-21T22:57:39.868Z,253.42
2018-10-21T23:00:09.961Z,272.63
2018-10-21T23:02:39.339Z,275.45
2018-10-21T23:05:09.367Z,269.00
2018-10-21T23:07:39.370Z,278.18
2018-10-21T23:10:08.829Z,300.80
2018-10-21T23:12:38.127Z,306.32
2018-10-21T23:15:08.572Z,315.30
2018-10-21T23:17:38.131Z,415.77
2018-10-21T23:20:07.734Z,415.62
2018-10-21T23:22:37.109Z,331.80
2018-10-21T23:25:06.941Z,330.10
2018-10-21T23:27:36.283Z,329.90
2018-10-21T23:30:07.532Z,338.77
2018-10-21T23:32:36.867Z,348.35
2018-10-21T23:35:06.835Z,350.95
2018-10-21T23:37:36.217Z,384.57
2018-10-21T23:40:06.497Z,395.77
2018-10-21T23:42:35.798Z,388.85
2018-10-21T23:45:06.322Z,410.17
2018-10-21T23:47:35.656Z,402.20
2018-10-21T23:50:05.540Z,376.52
2018-10-21T23:52:34.926Z,395.93
2018-10-21T23:55:04.362Z,394.63
2018-10-21T23:57:33.809Z,394.02
